Jamestown, Canada
Current Conditions -  °F | °C
As of 1:00 AM on Monday 22 Dec 2014 (Local Time) from CYQX Reporting Station
Few Clouds Few Clouds  
Wind Chill: -13°   Ceiling: Unl
Heat Index: -7°   Visibility: 20mi
Dew Point: -8°   Wind: 8mph
Humidity: 93%   Direction: 270°W
Pressure: 30.31"   Gusts: NA
Location:  48.43°N, 53.8°W
Report Text: CYQX 220400Z 27007KT 20SM FEW260 M07/M08 A3031 RMK CI2 SLP273
Loading
Personal Weather Stations






























Interactive Weather Map New forecast layout! Learn more

10-Day Weather Forecast

Advertisements
Track Severe Weather on mobile